Altoona, KS

4:42 PM CST on February 01, 2015 (GMT -0600)
Chanute Martin Johnson | Change Station
CLOSE
Current Station
Airport
Location: Chanute,
Elevation: 1001 ft
Nearby Weather Stations
Active Advisory: Wind Advisory Active Notice: Public Information Statement

Elev 1001 ft 37.67 °N, 95.48 °W | Updated 50 minutes ago

Overcast
Overcast
23 °F
Feels Like 7 °F
N
24
Wind Variable Wind from NNW
Gusts 38 mph

Today
High -- | Low -- °F
--% Chance of Precip.
Yesterday
High -- | Low -- °F
Precip. -- in
7:26 AM 5:46 PM
Waxing Gibbous, 96% visible
Pressure 30.08 in
Visibility 10.0 miles
Clouds Overcast 2400 ft
Windchill 7 °F
Dew Point 14 °F
Humidity 68%
Rainfall 0.23 in
Snow Depth Not available.
UV 0 out of 12
Pollen 1.50 out of 12
Air Quality Not available.
Flu Activity Not available.
METAR KCNU 012152Z AUTO 33021G33KT 10SM OVC024 M05/M10 A3005 RMK AO2 PK WND 31035/2112 SLP184 T10501100

More Conditions Fewer Conditions

Pressure 30.08 in
Visibility 10.0 miles
Clouds Overcast 2400 ft
Windchill 7 °F
Dew Point 14 °F
Humidity 68%
Rainfall 0.23 in
Snow Depth Not available.
UV 0 out of 12
Pollen 1.50 out of 12
Air Quality Not available.
Flu Activity Not available.
METAR KCNU 012152Z AUTO 33021G33KT 10SM OVC024 M05/M10 A3005 RMK AO2 PK WND 31035/2112 SLP184 T10501100

More Conditions Fewer Conditions

10-Day Weather Forecast

Almanac

Astronomy

Feb. 01, 2015 Rise Set
Actual Time
Civil Twilight
Nautical Twilight
Astronomical Twilight
Moon
Length of Visible Light
Length of Day
Tomorrow will be .
, % of the Moon is Illuminated

Today's Extremes

State Highs State Lows

Community

WunderPhotos

Upload Photos

1,792,581 photos uploaded!

WunderBlogs® & News

Nearby

Air Quality

  Air Quality AQ Index Pollutant
Not available.

Snow Depth

Station Depth Elevation

Earthquake Activity

City Distance Mag. Time & Date
Minimum magnitude displayed is 2.5.

Coastal Water Temperatures

Place Temperature

Nearby Weather Stations